• Join FlightAware (Why Join?)
  • Login
  • US Flag 
08:12PM EST


 

Airport Tracker/Info


-or-


 

Live Flight TrackerFlight Track Log ✈ N407BS ✈ 05-May-2013 ✈ KLUK - KOWB

Flight Track Log - Related Links

Times and Time Zones

All times are in EDT time to prevent confusion due to time zone crossing. See the N407BS flight status page for this flight to view local times or setup timezone preferences in your user account.

Time Position Orientation Groundspeed Altitude Reporting Facility
EDT Latitude Longitude Course Direction KTS MPH feet Rate Location/Type
05:53PM 39.0333 -84.4500 199° South 238 274 3,600  Level Cincinnati TRACON
05:54PM 38.9833 -84.4667 195° South 225 259 6,500 3,180 Climbing Cincinnati TRACON
05:56PM 38.8808 -84.5522 213° Southwest 262 302 12,500 3,180 Climbing Indianapolis Center
05:58PM 38.7717 -84.7183 230° Southwest 311 358 19,000 2,400 Climbing Indianapolis Center
05:59PM 38.6944 -84.8394 231° Southwest 365 420 20,000 480 Climbing Indianapolis Center
06:00PM 38.6208 -84.9417 227° Southwest 386 444 20,000  Level Indianapolis Center
06:01PM 38.5231 -84.9814 198° South 373 429 20,000 -60 Level Indianapolis Center
06:02PM 38.4250 -85.0039 190° South 359 413 19,900  Descending Indianapolis Center
06:03PM 38.3331 -85.0456 200° South 349 402 20,000  Climbing Indianapolis Center
06:04PM 38.2614 -85.1575 231° Southwest 369 425 20,000  Level Indianapolis Center
06:05PM 38.2244 -85.2639 246° West 387 445 20,000  Level Indianapolis Center
06:06PM 38.1653 -85.4172 244° Southwest 397 457 20,000  Level Indianapolis Center
06:07PM 38.1142 -85.5475 244° Southwest 407 468 20,000  Level Indianapolis Center
06:08PM 38.0767 -85.6875 251° West 420 483 20,000 -60 Level Indianapolis Center
06:09PM 38.0458 -85.8303 255° West 418 481 19,900 -660 Descending Indianapolis Center
06:10PM 38.0156 -85.9683 254° West 409 471 18,700 -1,680 Descending Indianapolis Center
06:12PM 37.9748 -86.1137 254° West  Level FlightAware Approximate
06:12PM 37.9564 -86.2292 254° West 377 434 14,700  Level Indianapolis Center
06:13PM 37.9294 -86.3431 253° West 343 395 13,000 -1,620 Descending Indianapolis Center
06:14PM 37.8994 -86.4783 254° West 331 381 11,400 -1,020 Descending Indianapolis Center
06:15PM 37.8744 -86.5892 254° West 327 376 10,900 -720 Descending Indianapolis Center
06:16PM 37.8806 -86.6956 274° West 324 373 10,000 -1,440 Descending Indianapolis Center
06:17PM 37.9294 -86.7781 307° West 293 337 8,000 -1,800 Descending Indianapolis Center
06:18PM 37.9456 -86.8728 282° West 286 329 6,300 -1,620 Descending Indianapolis Center
06:19PM 37.9422 -86.9672 267° West 272 313 4,700 -1,500 Descending Indianapolis Center
06:20PM 37.9394 -87.0569 268° West 263 303 3,200 -840 Descending Indianapolis Center
06:21PM 37.9375 -87.1336 268° West 239 275 3,000 -420 Descending Indianapolis Center
06:23PM 37.9019 -87.1836 228° Southwest 217 250 2,400 -600 Descending Indianapolis Center
06:24PM 37.8425 -87.1844 181° South 192 221 1,800 -660 Descending Indianapolis Center
06:25PM 37.8003 -87.1728 168° South 170 196 1,100 -540 Descending Indianapolis Center
06:26PM 37.7658 -87.1667 172° South 147 169 700 -420 Descending Indianapolis Center